sensor_id;sensor_type;location;lat;lon;timestamp;P1;durP1;ratioP1;P2;durP2;ratioP2
80623;SDS011;70269;44.768;9.600;2023-09-19T00:02:02;27.98;;;12.73;;
80623;SDS011;70269;44.768;9.600;2023-09-19T00:04:34;31.00;;;12.10;;
80623;SDS011;70269;44.768;9.600;2023-09-19T00:07:00;26.52;;;12.95;;
80623;SDS011;70269;44.768;9.600;2023-09-19T00:09:27;23.73;;;12.82;;
80623;SDS011;70269;44.768;9.600;2023-09-19T00:11:53;27.67;;;12.77;;
80623;SDS011;70269;44.768;9.600;2023-09-19T00:14:19;26.15;;;11.50;;
80623;SDS011;70269;44.768;9.600;2023-09-19T00:16:44;26.42;;;11.90;;
80623;SDS011;70269;44.768;9.600;2023-09-19T00:19:11;22.33;;;10.93;;
80623;SDS011;70269;44.768;9.600;2023-09-19T00:21:37;22.70;;;10.38;;
80623;SDS011;70269;44.768;9.600;2023-09-19T00:24:03;23.45;;;10.75;;
80623;SDS011;70269;44.768;9.600;2023-09-19T00:26:34;24.90;;;11.30;;
80623;SDS011;70269;44.768;9.600;2023-09-19T00:29:00;27.98;;;12.55;;
80623;SDS011;70269;44.768;9.600;2023-09-19T00:31:33;25.17;;;11.65;;
80623;SDS011;70269;44.768;9.600;2023-09-19T00:33:59;34.10;;;13.25;;
80623;SDS011;70269;44.768;9.600;2023-09-19T00:36:29;25.58;;;11.90;;
80623;SDS011;70269;44.768;9.600;2023-09-19T00:38:55;24.55;;;12.05;;
80623;SDS011;70269;44.768;9.600;2023-09-19T00:41:20;30.60;;;13.15;;
80623;SDS011;70269;44.768;9.600;2023-09-19T00:43:46;27.80;;;13.43;;
80623;SDS011;70269;44.768;9.600;2023-09-19T00:46:16;31.10;;;12.57;;
80623;SDS011;70269;44.768;9.600;2023-09-19T00:48:42;24.13;;;10.00;;
80623;SDS011;70269;44.768;9.600;2023-09-19T00:51:11;24.48;;;10.75;;
80623;SDS011;70269;44.768;9.600;2023-09-19T00:53:38;18.35;;;8.75;;
80623;SDS011;70269;44.768;9.600;2023-09-19T00:56:04;23.83;;;10.52;;
80623;SDS011;70269;44.768;9.600;2023-09-19T00:58:32;24.25;;;11.23;;
80623;SDS011;70269;44.768;9.600;2023-09-19T01:00:59;20.70;;;9.30;;
80623;SDS011;70269;44.768;9.600;2023-09-19T01:03:25;21.92;;;10.25;;
80623;SDS011;70269;44.768;9.600;2023-09-19T01:05:51;23.95;;;10.60;;
80623;SDS011;70269;44.768;9.600;2023-09-19T01:08:18;23.02;;;10.18;;
80623;SDS011;70269;44.768;9.600;2023-09-19T01:10:46;17.92;;;8.55;;
80623;SDS011;70269;44.768;9.600;2023-09-19T01:13:28;21.90;;;9.73;;
80623;SDS011;70269;44.768;9.600;2023-09-19T01:18:55;20.00;;;8.40;;
80623;SDS011;70269;44.768;9.600;2023-09-19T01:27:25;15.07;;;5.40;;
80623;SDS011;70269;44.768;9.600;2023-09-19T01:30:14;15.15;;;4.50;;
80623;SDS011;70269;44.768;9.600;2023-09-19T01:32:47;11.20;;;3.75;;
80623;SDS011;70269;44.768;9.600;2023-09-19T01:35:17;9.95;;;4.13;;
80623;SDS011;70269;44.768;9.600;2023-09-19T01:37:43;9.63;;;2.95;;
80623;SDS011;70269;44.768;9.600;2023-09-19T01:40:10;6.10;;;2.88;;
80623;SDS011;70269;44.768;9.600;2023-09-19T01:45:51;8.05;;;2.55;;
80623;SDS011;70269;44.768;9.600;2023-09-19T01:48:35;11.52;;;3.10;;
80623;SDS011;70269;44.768;9.600;2023-09-19T01:51:25;8.85;;;2.90;;
80623;SDS011;70269;44.768;9.600;2023-09-19T01:56:36;9.30;;;2.42;;
80623;SDS011;70269;44.768;9.600;2023-09-19T01:59:09;5.65;;;2.47;;
80623;SDS011;70269;44.768;9.600;2023-09-19T02:01:38;6.80;;;2.35;;
80623;SDS011;70269;44.768;9.600;2023-09-19T02:04:05;8.15;;;2.47;;
80623;SDS011;70269;44.768;9.600;2023-09-19T02:06:32;8.18;;;2.50;;
80623;SDS011;70269;44.768;9.600;2023-09-19T02:08:59;10.23;;;2.60;;
80623;SDS011;70269;44.768;9.600;2023-09-19T02:11:24;8.88;;;2.50;;
80623;SDS011;70269;44.768;9.600;2023-09-19T02:13:50;6.53;;;2.55;;
80623;SDS011;70269;44.768;9.600;2023-09-19T02:16:19;7.40;;;2.83;;
80623;SDS011;70269;44.768;9.600;2023-09-19T02:18:47;7.22;;;2.72;;
80623;SDS011;70269;44.768;9.600;2023-09-19T02:21:17;8.40;;;2.38;;
80623;SDS011;70269;44.768;9.600;2023-09-19T02:23:44;9.50;;;3.33;;
80623;SDS011;70269;44.768;9.600;2023-09-19T02:26:12;12.63;;;4.03;;
80623;SDS011;70269;44.768;9.600;2023-09-19T02:28:40;8.48;;;2.45;;
80623;SDS011;70269;44.768;9.600;2023-09-19T02:31:07;11.85;;;2.60;;
80623;SDS011;70269;44.768;9.600;2023-09-19T02:33:32;9.38;;;2.70;;
80623;SDS011;70269;44.768;9.600;2023-09-19T02:35:58;6.85;;;2.53;;
80623;SDS011;70269;44.768;9.600;2023-09-19T02:38:24;6.57;;;2.30;;
80623;SDS011;70269;44.768;9.600;2023-09-19T02:40:51;12.25;;;2.80;;
80623;SDS011;70269;44.768;9.600;2023-09-19T02:43:17;8.98;;;2.80;;
80623;SDS011;70269;44.768;9.600;2023-09-19T02:45:45;8.43;;;2.63;;
80623;SDS011;70269;44.768;9.600;2023-09-19T02:48:12;7.90;;;2.78;;
80623;SDS011;70269;44.768;9.600;2023-09-19T02:50:38;5.60;;;2.50;;
80623;SDS011;70269;44.768;9.600;2023-09-19T02:53:05;12.07;;;3.47;;
80623;SDS011;70269;44.768;9.600;2023-09-19T02:55:31;4.60;;;2.15;;
80623;SDS011;70269;44.768;9.600;2023-09-19T02:57:58;9.27;;;2.78;;
80623;SDS011;70269;44.768;9.600;2023-09-19T03:00:24;9.35;;;2.72;;
80623;SDS011;70269;44.768;9.600;2023-09-19T03:02:50;8.88;;;2.83;;
80623;SDS011;70269;44.768;9.600;2023-09-19T03:05:18;9.63;;;2.78;;
80623;SDS011;70269;44.768;9.600;2023-09-19T03:07:44;6.63;;;2.45;;
80623;SDS011;70269;44.768;9.600;2023-09-19T03:10:22;9.02;;;3.10;;
80623;SDS011;70269;44.768;9.600;2023-09-19T03:12:48;9.27;;;3.10;;
80623;SDS011;70269;44.768;9.600;2023-09-19T03:15:16;6.50;;;3.30;;
80623;SDS011;70269;44.768;9.600;2023-09-19T03:17:44;10.57;;;3.17;;
80623;SDS011;70269;44.768;9.600;2023-09-19T03:20:11;11.45;;;3.78;;
80623;SDS011;70269;44.768;9.600;2023-09-19T03:22:39;18.80;;;4.93;;
80623;SDS011;70269;44.768;9.600;2023-09-19T03:25:05;13.82;;;4.07;;
80623;SDS011;70269;44.768;9.600;2023-09-19T03:27:38;8.02;;;3.55;;
80623;SDS011;70269;44.768;9.600;2023-09-19T03:30:05;8.93;;;3.40;;
80623;SDS011;70269;44.768;9.600;2023-09-19T03:32:45;8.63;;;3.08;;
80623;SDS011;70269;44.768;9.600;2023-09-19T03:35:12;10.55;;;3.40;;
80623;SDS011;70269;44.768;9.600;2023-09-19T03:37:40;9.50;;;3.67;;
80623;SDS011;70269;44.768;9.600;2023-09-19T03:40:07;12.02;;;5.28;;
80623;SDS011;70269;44.768;9.600;2023-09-19T03:42:37;9.30;;;3.75;;
80623;SDS011;70269;44.768;9.600;2023-09-19T03:45:04;14.30;;;4.38;;
80623;SDS011;70269;44.768;9.600;2023-09-19T03:47:32;9.45;;;3.90;;
80623;SDS011;70269;44.768;9.600;2023-09-19T03:50:00;8.60;;;4.05;;
80623;SDS011;70269;44.768;9.600;2023-09-19T03:52:27;13.07;;;4.57;;
80623;SDS011;70269;44.768;9.600;2023-09-19T03:54:52;10.50;;;4.50;;
80623;SDS011;70269;44.768;9.600;2023-09-19T03:57:18;9.57;;;3.50;;
80623;SDS011;70269;44.768;9.600;2023-09-19T03:59:46;10.88;;;3.80;;
80623;SDS011;70269;44.768;9.600;2023-09-19T04:02:12;8.10;;;3.42;;
80623;SDS011;70269;44.768;9.600;2023-09-19T04:04:48;9.00;;;3.72;;
80623;SDS011;70269;44.768;9.600;2023-09-19T04:07:15;9.63;;;2.67;;
80623;SDS011;70269;44.768;9.600;2023-09-19T04:09:41;7.85;;;2.95;;
80623;SDS011;70269;44.768;9.600;2023-09-19T04:12:07;7.43;;;3.00;;
80623;SDS011;70269;44.768;9.600;2023-09-19T04:14:34;10.45;;;3.72;;
80623;SDS011;70269;44.768;9.600;2023-09-19T04:16:59;7.75;;;3.10;;
80623;SDS011;70269;44.768;9.600;2023-09-19T04:19:26;11.88;;;3.45;;
80623;SDS011;70269;44.768;9.600;2023-09-19T04:21:51;9.60;;;2.97;;
80623;SDS011;70269;44.768;9.600;2023-09-19T04:24:17;8.15;;;3.38;;
80623;SDS011;70269;44.768;9.600;2023-09-19T04:26:44;13.68;;;3.78;;
80623;SDS011;70269;44.768;9.600;2023-09-19T04:29:10;8.35;;;3.05;;
80623;SDS011;70269;44.768;9.600;2023-09-19T04:31:36;9.20;;;3.47;;
80623;SDS011;70269;44.768;9.600;2023-09-19T04:34:03;8.50;;;3.30;;
80623;SDS011;70269;44.768;9.600;2023-09-19T04:36:29;8.88;;;3.28;;
80623;SDS011;70269;44.768;9.600;2023-09-19T04:38:55;9.75;;;3.20;;
80623;SDS011;70269;44.768;9.600;2023-09-19T04:41:20;8.68;;;2.95;;
80623;SDS011;70269;44.768;9.600;2023-09-19T04:43:47;9.00;;;3.38;;
80623;SDS011;70269;44.768;9.600;2023-09-19T04:46:14;7.22;;;3.33;;
80623;SDS011;70269;44.768;9.600;2023-09-19T04:48:40;7.90;;;3.13;;
80623;SDS011;70269;44.768;9.600;2023-09-19T04:51:06;8.63;;;3.22;;
80623;SDS011;70269;44.768;9.600;2023-09-19T04:53:34;9.55;;;3.58;;
80623;SDS011;70269;44.768;9.600;2023-09-19T04:55:59;9.82;;;3.10;;
80623;SDS011;70269;44.768;9.600;2023-09-19T04:58:25;8.43;;;3.03;;
80623;SDS011;70269;44.768;9.600;2023-09-19T05:00:51;8.70;;;3.20;;
80623;SDS011;70269;44.768;9.600;2023-09-19T05:03:17;6.82;;;2.95;;
80623;SDS011;70269;44.768;9.600;2023-09-19T05:05:45;11.23;;;3.85;;
80623;SDS011;70269;44.768;9.600;2023-09-19T05:08:10;6.63;;;2.97;;
80623;SDS011;70269;44.768;9.600;2023-09-19T05:10:36;9.77;;;3.35;;
80623;SDS011;70269;44.768;9.600;2023-09-19T05:13:04;9.50;;;3.05;;
80623;SDS011;70269;44.768;9.600;2023-09-19T05:15:30;9.75;;;2.85;;
80623;SDS011;70269;44.768;9.600;2023-09-19T05:17:56;8.05;;;3.05;;
80623;SDS011;70269;44.768;9.600;2023-09-19T05:20:22;9.68;;;3.35;;
80623;SDS011;70269;44.768;9.600;2023-09-19T05:22:59;14.15;;;3.88;;
80623;SDS011;70269;44.768;9.600;2023-09-19T05:25:31;7.07;;;3.50;;
80623;SDS011;70269;44.768;9.600;2023-09-19T05:27:57;8.77;;;3.45;;
80623;SDS011;70269;44.768;9.600;2023-09-19T05:30:27;12.35;;;3.65;;
80623;SDS011;70269;44.768;9.600;2023-09-19T05:32:53;7.50;;;3.28;;
80623;SDS011;70269;44.768;9.600;2023-09-19T05:35:19;10.05;;;3.30;;
80623;SDS011;70269;44.768;9.600;2023-09-19T05:37:47;10.25;;;3.70;;
80623;SDS011;70269;44.768;9.600;2023-09-19T05:40:16;9.60;;;3.22;;
80623;SDS011;70269;44.768;9.600;2023-09-19T05:42:45;8.05;;;2.95;;
80623;SDS011;70269;44.768;9.600;2023-09-19T05:45:11;8.82;;;3.58;;
80623;SDS011;70269;44.768;9.600;2023-09-19T05:47:42;7.18;;;3.40;;
80623;SDS011;70269;44.768;9.600;2023-09-19T05:50:11;10.68;;;4.45;;
80623;SDS011;70269;44.768;9.600;2023-09-19T05:52:37;11.38;;;4.20;;
80623;SDS011;70269;44.768;9.600;2023-09-19T05:55:07;12.63;;;4.32;;
80623;SDS011;70269;44.768;9.600;2023-09-19T05:57:33;9.15;;;4.22;;
80623;SDS011;70269;44.768;9.600;2023-09-19T06:00:08;10.38;;;3.80;;
80623;SDS011;70269;44.768;9.600;2023-09-19T06:02:39;10.05;;;4.00;;
80623;SDS011;70269;44.768;9.600;2023-09-19T06:05:06;7.75;;;3.45;;
80623;SDS011;70269;44.768;9.600;2023-09-19T06:07:36;11.40;;;3.40;;
80623;SDS011;70269;44.768;9.600;2023-09-19T06:10:03;10.13;;;3.90;;
80623;SDS011;70269;44.768;9.600;2023-09-19T06:12:31;9.70;;;2.83;;
80623;SDS011;70269;44.768;9.600;2023-09-19T06:14:58;9.60;;;3.28;;
80623;SDS011;70269;44.768;9.600;2023-09-19T06:17:24;6.57;;;2.92;;
80623;SDS011;70269;44.768;9.600;2023-09-19T06:19:52;7.93;;;2.97;;
80623;SDS011;70269;44.768;9.600;2023-09-19T06:22:19;9.82;;;2.95;;
80623;SDS011;70269;44.768;9.600;2023-09-19T06:24:44;8.48;;;3.03;;
80623;SDS011;70269;44.768;9.600;2023-09-19T06:27:12;8.38;;;3.13;;
80623;SDS011;70269;44.768;9.600;2023-09-19T06:29:38;5.78;;;3.00;;
80623;SDS011;70269;44.768;9.600;2023-09-19T06:32:07;4.25;;;1.73;;
80623;SDS011;70269;44.768;9.600;2023-09-19T06:34:37;9.02;;;2.75;;
80623;SDS011;70269;44.768;9.600;2023-09-19T06:37:08;8.40;;;2.58;;
80623;SDS011;70269;44.768;9.600;2023-09-19T06:39:33;8.48;;;2.30;;
80623;SDS011;70269;44.768;9.600;2023-09-19T06:41:59;9.10;;;2.40;;
80623;SDS011;70269;44.768;9.600;2023-09-19T06:44:26;7.40;;;2.53;;
80623;SDS011;70269;44.768;9.600;2023-09-19T06:46:53;7.10;;;2.55;;
80623;SDS011;70269;44.768;9.600;2023-09-19T06:49:19;7.55;;;3.28;;
80623;SDS011;70269;44.768;9.600;2023-09-19T06:51:45;8.15;;;2.35;;
80623;SDS011;70269;44.768;9.600;2023-09-19T06:54:10;8.98;;;3.15;;
80623;SDS011;70269;44.768;9.600;2023-09-19T06:56:36;7.32;;;3.00;;
80623;SDS011;70269;44.768;9.600;2023-09-19T06:59:02;7.95;;;2.38;;
80623;SDS011;70269;44.768;9.600;2023-09-19T07:01:28;9.52;;;2.92;;
80623;SDS011;70269;44.768;9.600;2023-09-19T07:03:54;5.93;;;1.98;;
80623;SDS011;70269;44.768;9.600;2023-09-19T07:06:20;6.18;;;2.42;;
80623;SDS011;70269;44.768;9.600;2023-09-19T07:08:46;7.43;;;2.47;;
80623;SDS011;70269;44.768;9.600;2023-09-19T07:11:11;6.85;;;2.45;;
80623;SDS011;70269;44.768;9.600;2023-09-19T07:13:37;4.68;;;1.92;;
80623;SDS011;70269;44.768;9.600;2023-09-19T07:16:04;7.50;;;2.72;;
80623;SDS011;70269;44.768;9.600;2023-09-19T07:18:30;7.00;;;2.60;;
80623;SDS011;70269;44.768;9.600;2023-09-19T07:20:57;8.68;;;2.58;;
80623;SDS011;70269;44.768;9.600;2023-09-19T07:23:26;5.20;;;2.20;;
80623;SDS011;70269;44.768;9.600;2023-09-19T07:25:52;5.57;;;2.25;;
80623;SDS011;70269;44.768;9.600;2023-09-19T07:28:22;7.00;;;2.78;;
80623;SDS011;70269;44.768;9.600;2023-09-19T07:30:48;5.90;;;2.17;;
80623;SDS011;70269;44.768;9.600;2023-09-19T07:33:13;6.45;;;2.47;;
80623;SDS011;70269;44.768;9.600;2023-09-19T07:35:39;7.85;;;2.63;;
80623;SDS011;70269;44.768;9.600;2023-09-19T07:38:06;9.68;;;4.07;;
80623;SDS011;70269;44.768;9.600;2023-09-19T07:40:32;9.43;;;4.15;;
80623;SDS011;70269;44.768;9.600;2023-09-19T07:42:57;10.25;;;4.78;;
80623;SDS011;70269;44.768;9.600;2023-09-19T07:45:28;12.43;;;4.03;;
80623;SDS011;70269;44.768;9.600;2023-09-19T07:47:55;8.63;;;3.60;;
80623;SDS011;70269;44.768;9.600;2023-09-19T07:50:21;8.55;;;3.38;;
80623;SDS011;70269;44.768;9.600;2023-09-19T07:52:47;7.28;;;3.20;;
80623;SDS011;70269;44.768;9.600;2023-09-19T07:55:16;8.90;;;3.25;;
80623;SDS011;70269;44.768;9.600;2023-09-19T07:57:42;12.15;;;3.17;;
80623;SDS011;70269;44.768;9.600;2023-09-19T08:00:09;7.65;;;2.67;;
80623;SDS011;70269;44.768;9.600;2023-09-19T08:02:38;7.68;;;2.88;;
80623;SDS011;70269;44.768;9.600;2023-09-19T08:05:05;7.45;;;2.20;;
80623;SDS011;70269;44.768;9.600;2023-09-19T08:07:35;9.35;;;2.53;;
80623;SDS011;70269;44.768;9.600;2023-09-19T08:10:05;7.60;;;2.65;;
80623;SDS011;70269;44.768;9.600;2023-09-19T08:12:37;6.85;;;2.80;;
80623;SDS011;70269;44.768;9.600;2023-09-19T08:15:03;7.40;;;2.40;;
80623;SDS011;70269;44.768;9.600;2023-09-19T08:17:33;11.07;;;2.47;;
80623;SDS011;70269;44.768;9.600;2023-09-19T08:20:00;8.40;;;1.92;;
80623;SDS011;70269;44.768;9.600;2023-09-19T08:22:26;5.53;;;2.10;;
80623;SDS011;70269;44.768;9.600;2023-09-19T08:24:52;3.00;;;1.08;;
80623;SDS011;70269;44.768;9.600;2023-09-19T08:27:18;3.97;;;1.63;;
80623;SDS011;70269;44.768;9.600;2023-09-19T08:29:44;6.88;;;2.05;;
80623;SDS011;70269;44.768;9.600;2023-09-19T08:32:12;5.97;;;1.35;;
80623;SDS011;70269;44.768;9.600;2023-09-19T08:34:37;7.38;;;2.08;;
80623;SDS011;70269;44.768;9.600;2023-09-19T08:37:03;7.45;;;1.90;;
80623;SDS011;70269;44.768;9.600;2023-09-19T08:39:29;6.63;;;2.00;;
80623;SDS011;70269;44.768;9.600;2023-09-19T08:41:59;7.32;;;2.05;;
80623;SDS011;70269;44.768;9.600;2023-09-19T08:44:25;5.97;;;1.85;;
80623;SDS011;70269;44.768;9.600;2023-09-19T08:46:55;4.75;;;1.88;;
80623;SDS011;70269;44.768;9.600;2023-09-19T08:52:20;7.80;;;2.08;;
80623;SDS011;70269;44.768;9.600;2023-09-19T08:54:54;5.82;;;1.77;;
80623;SDS011;70269;44.768;9.600;2023-09-19T08:57:26;4.03;;;1.48;;
80623;SDS011;70269;44.768;9.600;2023-09-19T08:59:54;5.90;;;2.28;;
80623;SDS011;70269;44.768;9.600;2023-09-19T09:02:21;7.13;;;1.55;;
80623;SDS011;70269;44.768;9.600;2023-09-19T09:04:48;9.00;;;2.03;;
80623;SDS011;70269;44.768;9.600;2023-09-19T09:07:15;6.55;;;2.85;;
80623;SDS011;70269;44.768;9.600;2023-09-19T09:09:42;10.63;;;3.13;;
80623;SDS011;70269;44.768;9.600;2023-09-19T09:12:12;10.10;;;3.30;;
80623;SDS011;70269;44.768;9.600;2023-09-19T09:14:39;6.38;;;3.40;;
80623;SDS011;70269;44.768;9.600;2023-09-19T09:17:06;8.48;;;3.15;;
80623;SDS011;70269;44.768;9.600;2023-09-19T09:19:32;8.02;;;3.33;;
80623;SDS011;70269;44.768;9.600;2023-09-19T09:22:07;14.98;;;4.32;;
80623;SDS011;70269;44.768;9.600;2023-09-19T09:24:34;14.38;;;3.70;;
80623;SDS011;70269;44.768;9.600;2023-09-19T09:27:03;8.50;;;2.97;;
80623;SDS011;70269;44.768;9.600;2023-09-19T09:32:17;7.47;;;3.80;;
80623;SDS011;70269;44.768;9.600;2023-09-19T09:34:45;9.55;;;3.90;;
80623;SDS011;70269;44.768;9.600;2023-09-19T09:37:16;13.23;;;4.55;;
80623;SDS011;70269;44.768;9.600;2023-09-19T09:39:49;14.32;;;4.28;;
80623;SDS011;70269;44.768;9.600;2023-09-19T09:42:31;8.23;;;3.47;;
80623;SDS011;70269;44.768;9.600;2023-09-19T09:45:18;9.30;;;4.53;;
80623;SDS011;70269;44.768;9.600;2023-09-19T09:48:03;8.35;;;3.97;;
80623;SDS011;70269;44.768;9.600;2023-09-19T09:50:33;9.48;;;4.22;;
80623;SDS011;70269;44.768;9.600;2023-09-19T09:53:19;11.07;;;4.68;;
80623;SDS011;70269;44.768;9.600;2023-09-19T09:56:03;10.30;;;4.47;;
80623;SDS011;70269;44.768;9.600;2023-09-19T09:58:40;8.88;;;4.47;;
80623;SDS011;70269;44.768;9.600;2023-09-19T10:01:16;9.63;;;4.40;;
80623;SDS011;70269;44.768;9.600;2023-09-19T10:03:43;11.23;;;4.65;;
80623;SDS011;70269;44.768;9.600;2023-09-19T10:06:10;15.70;;;5.10;;
80623;SDS011;70269;44.768;9.600;2023-09-19T10:09:02;8.52;;;4.05;;
80623;SDS011;70269;44.768;9.600;2023-09-19T10:11:31;10.32;;;4.82;;
80623;SDS011;70269;44.768;9.600;2023-09-19T10:13:58;8.95;;;4.95;;
80623;SDS011;70269;44.768;9.600;2023-09-19T10:16:31;11.85;;;4.78;;
80623;SDS011;70269;44.768;9.600;2023-09-19T10:18:58;8.68;;;4.40;;
80623;SDS011;70269;44.768;9.600;2023-09-19T10:21:28;11.82;;;4.20;;
80623;SDS011;70269;44.768;9.600;2023-09-19T10:23:56;9.10;;;4.93;;
80623;SDS011;70269;44.768;9.600;2023-09-19T10:26:26;13.05;;;4.75;;
80623;SDS011;70269;44.768;9.600;2023-09-19T10:28:56;7.70;;;3.75;;
80623;SDS011;70269;44.768;9.600;2023-09-19T10:31:25;9.25;;;3.97;;
80623;SDS011;70269;44.768;9.600;2023-09-19T10:33:51;10.13;;;4.63;;
80623;SDS011;70269;44.768;9.600;2023-09-19T10:36:18;10.50;;;4.68;;
80623;SDS011;70269;44.768;9.600;2023-09-19T10:38:45;9.43;;;3.55;;
80623;SDS011;70269;44.768;9.600;2023-09-19T10:41:15;13.85;;;5.13;;
80623;SDS011;70269;44.768;9.600;2023-09-19T10:43:41;13.90;;;4.63;;
80623;SDS011;70269;44.768;9.600;2023-09-19T10:46:11;12.07;;;4.50;;
80623;SDS011;70269;44.768;9.600;2023-09-19T10:48:41;15.73;;;6.00;;
80623;SDS011;70269;44.768;9.600;2023-09-19T10:51:10;13.82;;;5.28;;
80623;SDS011;70269;44.768;9.600;2023-09-19T10:56:45;10.63;;;5.00;;
80623;SDS011;70269;44.768;9.600;2023-09-19T10:59:15;13.30;;;5.25;;
80623;SDS011;70269;44.768;9.600;2023-09-19T11:01:47;12.27;;;5.50;;
80623;SDS011;70269;44.768;9.600;2023-09-19T11:04:32;13.25;;;4.90;;
80623;SDS011;70269;44.768;9.600;2023-09-19T11:07:07;11.00;;;4.18;;
80623;SDS011;70269;44.768;9.600;2023-09-19T11:15:00;15.35;;;5.15;;
80623;SDS011;70269;44.768;9.600;2023-09-19T11:17:35;12.90;;;4.95;;
80623;SDS011;70269;44.768;9.600;2023-09-19T11:30:37;8.57;;;4.53;;
80623;SDS011;70269;44.768;9.600;2023-09-19T11:36:07;10.50;;;4.60;;
80623;SDS011;70269;44.768;9.600;2023-09-19T11:43:45;11.50;;;5.22;;
80623;SDS011;70269;44.768;9.600;2023-09-19T11:46:11;9.75;;;5.43;;
80623;SDS011;70269;44.768;9.600;2023-09-19T11:48:42;11.77;;;5.15;;
80623;SDS011;70269;44.768;9.600;2023-09-19T11:51:13;12.23;;;5.03;;
80623;SDS011;70269;44.768;9.600;2023-09-19T11:53:48;12.63;;;5.38;;
80623;SDS011;70269;44.768;9.600;2023-09-19T11:56:16;15.32;;;5.35;;
80623;SDS011;70269;44.768;9.600;2023-09-19T11:58:46;8.98;;;4.55;;
80623;SDS011;70269;44.768;9.600;2023-09-19T12:01:16;10.48;;;5.03;;
80623;SDS011;70269;44.768;9.600;2023-09-19T12:03:47;10.43;;;5.38;;
80623;SDS011;70269;44.768;9.600;2023-09-19T12:06:19;11.63;;;5.82;;
80623;SDS011;70269;44.768;9.600;2023-09-19T12:11:13;10.63;;;4.90;;
80623;SDS011;70269;44.768;9.600;2023-09-19T12:13:44;10.27;;;5.13;;
80623;SDS011;70269;44.768;9.600;2023-09-19T12:16:13;11.48;;;4.68;;
80623;SDS011;70269;44.768;9.600;2023-09-19T12:18:40;13.18;;;5.10;;
80623;SDS011;70269;44.768;9.600;2023-09-19T12:24:07;11.80;;;5.03;;
80623;SDS011;70269;44.768;9.600;2023-09-19T12:29:13;12.13;;;4.82;;
80623;SDS011;70269;44.768;9.600;2023-09-19T12:31:54;8.38;;;4.55;;
80623;SDS011;70269;44.768;9.600;2023-09-19T12:34:23;13.27;;;5.18;;
80623;SDS011;70269;44.768;9.600;2023-09-19T12:37:05;9.13;;;4.47;;
80623;SDS011;70269;44.768;9.600;2023-09-19T12:39:40;11.75;;;5.88;;
80623;SDS011;70269;44.768;9.600;2023-09-19T12:42:09;10.80;;;5.30;;
80623;SDS011;70269;44.768;9.600;2023-09-19T12:44:44;10.23;;;5.03;;
80623;SDS011;70269;44.768;9.600;2023-09-19T12:47:12;11.00;;;5.60;;
80623;SDS011;70269;44.768;9.600;2023-09-19T12:52:47;11.88;;;4.55;;
80623;SDS011;70269;44.768;9.600;2023-09-19T12:55:29;10.93;;;4.63;;
80623;SDS011;70269;44.768;9.600;2023-09-19T13:00:32;10.15;;;4.45;;
80623;SDS011;70269;44.768;9.600;2023-09-19T13:05:49;15.07;;;5.40;;
80623;SDS011;70269;44.768;9.600;2023-09-19T13:08:22;11.63;;;5.53;;
80623;SDS011;70269;44.768;9.600;2023-09-19T13:16:10;11.80;;;5.47;;
80623;SDS011;70269;44.768;9.600;2023-09-19T13:18:48;9.20;;;4.80;;
80623;SDS011;70269;44.768;9.600;2023-09-19T13:21:27;7.82;;;4.07;;
80623;SDS011;70269;44.768;9.600;2023-09-19T13:24:23;8.52;;;5.13;;
80623;SDS011;70269;44.768;9.600;2023-09-19T13:26:55;10.93;;;4.97;;
80623;SDS011;70269;44.768;9.600;2023-09-19T13:29:20;12.18;;;5.05;;
80623;SDS011;70269;44.768;9.600;2023-09-19T13:31:50;10.23;;;4.72;;
80623;SDS011;70269;44.768;9.600;2023-09-19T13:34:18;11.57;;;5.40;;
80623;SDS011;70269;44.768;9.600;2023-09-19T13:36:45;9.75;;;4.45;;
80623;SDS011;70269;44.768;9.600;2023-09-19T13:39:13;11.65;;;4.38;;
80623;SDS011;70269;44.768;9.600;2023-09-19T13:41:41;11.27;;;4.55;;
80623;SDS011;70269;44.768;9.600;2023-09-19T13:44:08;9.30;;;4.50;;
80623;SDS011;70269;44.768;9.600;2023-09-19T13:46:36;10.77;;;5.13;;
80623;SDS011;70269;44.768;9.600;2023-09-19T13:49:02;8.48;;;4.40;;
80623;SDS011;70269;44.768;9.600;2023-09-19T13:51:29;10.80;;;4.47;;
80623;SDS011;70269;44.768;9.600;2023-09-19T13:53:57;14.88;;;5.13;;
80623;SDS011;70269;44.768;9.600;2023-09-19T13:56:25;11.18;;;4.43;;
80623;SDS011;70269;44.768;9.600;2023-09-19T13:58:53;9.75;;;4.32;;
80623;SDS011;70269;44.768;9.600;2023-09-19T14:01:19;7.63;;;3.83;;
80623;SDS011;70269;44.768;9.600;2023-09-19T14:03:45;9.82;;;4.70;;
80623;SDS011;70269;44.768;9.600;2023-09-19T14:06:14;11.20;;;4.18;;
80623;SDS011;70269;44.768;9.600;2023-09-19T14:08:43;8.60;;;4.18;;
80623;SDS011;70269;44.768;9.600;2023-09-19T14:11:13;12.70;;;4.65;;
80623;SDS011;70269;44.768;9.600;2023-09-19T14:13:41;7.63;;;3.13;;
80623;SDS011;70269;44.768;9.600;2023-09-19T14:16:13;8.52;;;4.22;;
80623;SDS011;70269;44.768;9.600;2023-09-19T14:18:39;8.02;;;4.45;;
80623;SDS011;70269;44.768;9.600;2023-09-19T14:21:06;10.20;;;4.03;;
80623;SDS011;70269;44.768;9.600;2023-09-19T14:23:34;10.32;;;2.97;;
80623;SDS011;70269;44.768;9.600;2023-09-19T14:26:01;4.97;;;1.35;;
80623;SDS011;70269;44.768;9.600;2023-09-19T14:28:27;6.38;;;2.30;;
80623;SDS011;70269;44.768;9.600;2023-09-19T14:30:55;5.50;;;1.95;;
80623;SDS011;70269;44.768;9.600;2023-09-19T14:33:21;6.30;;;1.42;;
80623;SDS011;70269;44.768;9.600;2023-09-19T14:35:46;3.67;;;1.20;;
80623;SDS011;70269;44.768;9.600;2023-09-19T14:38:12;6.63;;;1.35;;
80623;SDS011;70269;44.768;9.600;2023-09-19T14:40:37;5.10;;;1.73;;
80623;SDS011;70269;44.768;9.600;2023-09-19T14:43:04;5.20;;;1.27;;
80623;SDS011;70269;44.768;9.600;2023-09-19T14:45:30;3.33;;;1.20;;
80623;SDS011;70269;44.768;9.600;2023-09-19T14:47:56;5.13;;;1.27;;
80623;SDS011;70269;44.768;9.600;2023-09-19T14:50:22;5.03;;;1.30;;
80623;SDS011;70269;44.768;9.600;2023-09-19T14:52:48;6.30;;;1.65;;
80623;SDS011;70269;44.768;9.600;2023-09-19T14:55:16;4.45;;;1.13;;
80623;SDS011;70269;44.768;9.600;2023-09-19T14:57:42;5.85;;;1.45;;
80623;SDS011;70269;44.768;9.600;2023-09-19T15:00:10;4.82;;;1.42;;
80623;SDS011;70269;44.768;9.600;2023-09-19T15:02:37;4.85;;;1.10;;
80623;SDS011;70269;44.768;9.600;2023-09-19T15:05:05;4.20;;;1.50;;
80623;SDS011;70269;44.768;9.600;2023-09-19T15:07:34;6.00;;;1.45;;
80623;SDS011;70269;44.768;9.600;2023-09-19T15:10:02;4.55;;;1.20;;
80623;SDS011;70269;44.768;9.600;2023-09-19T15:12:28;5.18;;;1.33;;
80623;SDS011;70269;44.768;9.600;2023-09-19T15:14:54;6.03;;;1.38;;
80623;SDS011;70269;44.768;9.600;2023-09-19T15:17:20;3.05;;;1.10;;
80623;SDS011;70269;44.768;9.600;2023-09-19T15:19:46;3.40;;;1.10;;
80623;SDS011;70269;44.768;9.600;2023-09-19T15:22:11;4.20;;;1.15;;
80623;SDS011;70269;44.768;9.600;2023-09-19T15:24:38;5.53;;;1.13;;
80623;SDS011;70269;44.768;9.600;2023-09-19T15:27:03;5.45;;;1.67;;
80623;SDS011;70269;44.768;9.600;2023-09-19T15:29:29;5.47;;;1.90;;
80623;SDS011;70269;44.768;9.600;2023-09-19T15:31:55;6.15;;;1.35;;
80623;SDS011;70269;44.768;9.600;2023-09-19T15:34:23;3.35;;;1.00;;
80623;SDS011;70269;44.768;9.600;2023-09-19T15:36:50;5.18;;;1.17;;
80623;SDS011;70269;44.768;9.600;2023-09-19T15:39:16;5.88;;;1.25;;
80623;SDS011;70269;44.768;9.600;2023-09-19T15:41:45;4.13;;;1.20;;
80623;SDS011;70269;44.768;9.600;2023-09-19T15:44:16;5.20;;;1.48;;
80623;SDS011;70269;44.768;9.600;2023-09-19T15:46:43;3.72;;;1.00;;
80623;SDS011;70269;44.768;9.600;2023-09-19T15:49:09;4.68;;;1.00;;
80623;SDS011;70269;44.768;9.600;2023-09-19T15:51:35;3.60;;;1.00;;
80623;SDS011;70269;44.768;9.600;2023-09-19T15:54:01;3.60;;;1.15;;
80623;SDS011;70269;44.768;9.600;2023-09-19T15:56:33;4.88;;;1.17;;
80623;SDS011;70269;44.768;9.600;2023-09-19T15:59:00;7.05;;;1.00;;